CheckWX is a tool to help pilots better visualize weather data.  It is not intended as a substitute for an official pre-flight weather briefing.

13:28:08 UTC

HELX METAR
Luxor International Airport
Luxor, Egypt
Current

1 hour ago

HELX 181200Z WIND 310/09KT WEATHER CAVOK T 40 DP 18 Q1005 NOSIG
Observed
Aug-18 @ 12:00 UTC
Visibility
10,000+ meters
Flight Rules
VFR
Cloud Levels
  • Clear skies
Altimeter
29.68" Hg
Pressure
1004.92 hPa
Previous

2 hours ago

HELX 181100Z 32007KT CAVOK 39/17 Q1006 NOSIG
Observed
Aug-18 @ 11:00 UTC
Wind
  • 320° at 7 KTS
Visibility
10,000+ meters
Flight Rules
VFR
Cloud Levels
  • Clear skies
Temperature
39°C / 102°F
Dewpoint
17°C / 63°F
Humidity
27%
Altimeter
29.7" Hg
Pressure
1005.92 hPa
Previous

3 hours ago

HELX 181000Z 32007KT CAVOK 39/17 Q1006 NOSIG
Observed
Aug-18 @ 10:00 UTC
Wind
  • 320° at 7 KTS
Visibility
10,000+ meters
Flight Rules
VFR
Cloud Levels
  • Clear skies
Temperature
39°C / 102°F
Dewpoint
17°C / 63°F
Humidity
27%
Altimeter
29.7" Hg
Pressure
1005.92 hPa